Time;durP1;ratioP1;P1;durP2;ratioP2;P2;SDS_P1;SDS_P2;PMS_P1;PMS_P2;Temp;Humidity;BMP_temperature;BMP_pressure;BME280_temperature;BME280_humidity;BME280_pressure;Samples;Min_cycle;Max_cycle;Signal;HPM_P1;HPM_P2
2023/03/09 00:01:20;;;;;;;40.63;24.10;;;1.80;99.90;;;;;;8371546;28;20196;-63
2023/03/09 00:05:21;;;;;;;37.30;22.20;;;1.80;99.90;;;;;;8383451;28;20273;-63
2023/03/09 00:09:22;;;;;;;33.43;20.70;;;1.80;99.90;;;;;;8368199;28;20240;-63
2023/03/09 00:13:23;;;;;;;34.53;19.90;;;1.80;99.90;;;;;;8368749;28;20201;-63
2023/03/09 00:17:23;;;;;;;34.00;19.80;;;1.80;99.90;;;;;;8361689;28;20242;-64
2023/03/09 00:21:36;;;;;;;40.00;22.57;;;1.70;99.90;;;;;;8364685;28;20193;-64
2023/03/09 00:25:38;;;;;;;41.30;23.70;;;1.80;99.90;;;;;;8362014;28;20186;-64
2023/03/09 00:29:39;;;;;;;37.63;22.77;;;1.80;99.90;;;;;;8366588;28;20230;-66
2023/03/09 00:33:40;;;;;;;47.30;25.07;;;1.80;99.90;;;;;;8368531;28;20300;-64
2023/03/09 00:37:42;;;;;;;45.70;25.77;;;1.80;99.90;;;;;;8363332;28;20209;-63
2023/03/09 00:41:43;;;;;;;68.00;34.77;;;1.80;99.90;;;;;;8366355;28;20719;-62
2023/03/09 00:45:44;;;;;;;46.00;26.67;;;1.80;99.90;;;;;;8364738;28;20217;-63
2023/03/09 00:49:45;;;;;;;72.10;35.30;;;1.80;99.90;;;;;;8362006;28;20221;-62
2023/03/09 00:53:46;;;;;;;67.13;34.40;;;1.80;99.90;;;;;;8362361;28;20189;-62
2023/03/09 00:57:47;;;;;;;39.63;22.93;;;1.80;99.90;;;;;;8367419;28;20242;-62
2023/03/09 01:01:48;;;;;;;41.43;22.87;;;1.80;99.90;;;;;;8364508;28;20193;-62
2023/03/09 01:05:49;;;;;;;41.63;22.57;;;1.70;99.90;;;;;;8370516;28;20192;-64
2023/03/09 01:09:50;;;;;;;40.37;22.30;;;1.70;99.90;;;;;;8365452;28;20225;-62
2023/03/09 01:13:52;;;;;;;42.07;21.77;;;1.70;99.90;;;;;;8364087;28;20185;-62
2023/03/09 01:17:53;;;;;;;44.53;24.03;;;1.70;99.90;;;;;;8364003;28;20190;-63
2023/03/09 01:21:54;;;;;;;38.47;22.83;;;1.70;99.90;;;;;;8382928;28;20192;-63
2023/03/09 01:25:56;;;;;;;46.87;24.43;;;1.60;99.90;;;;;;8364530;28;20193;-63
2023/03/09 01:29:56;;;;;;;35.97;20.40;;;1.60;99.90;;;;;;8367189;28;20300;-63
2023/03/09 01:33:57;;;;;;;40.83;21.90;;;1.70;99.90;;;;;;8361332;28;20182;-63
2023/03/09 01:37:58;;;;;;;41.13;22.57;;;1.70;99.90;;;;;;8362604;28;20193;-63
2023/03/09 01:41:59;;;;;;;48.77;25.33;;;1.70;99.90;;;;;;8365117;28;20195;-62
2023/03/09 01:46:23;;;;;;;40.63;21.90;;;1.70;99.90;;;;;;8367219;28;20218;-63
2023/03/09 01:50:29;;;;;;;40.10;20.63;;;1.70;99.90;;;;;;8358063;28;20219;-63
2023/03/09 01:54:45;;;;;;;41.40;21.93;;;1.70;99.90;;;;;;8360532;28;20204;-63
2023/03/09 01:58:50;;;;;;;36.10;19.30;;;1.60;99.90;;;;;;8362146;28;20185;-65
2023/03/09 02:03:13;;;;;;;42.60;21.53;;;1.60;99.90;;;;;;8361010;28;20189;-64
2023/03/09 02:07:18;;;;;;;40.23;21.57;;;1.60;99.90;;;;;;8356992;28;20284;-63
2023/03/09 02:11:18;;;;;;;38.03;21.37;;;1.60;99.90;;;;;;8363173;28;20185;-62
2023/03/09 02:15:20;;;;;;;39.60;21.17;;;1.60;99.90;;;;;;8361191;28;20204;-62
2023/03/09 02:19:47;;;;;;;39.93;21.20;;;1.70;99.90;;;;;;8360270;28;20346;-63
2023/03/09 02:24:15;;;;;;;42.37;21.10;;;1.60;99.90;;;;;;8355882;28;20205;-63
2023/03/09 02:28:18;;;;;;;38.80;21.57;;;1.60;99.90;;;;;;8364056;28;20288;-63
2023/03/09 02:32:19;;;;;;;44.13;21.87;;;1.60;99.90;;;;;;8361927;28;20195;-63
2023/03/09 02:36:21;;;;;;;42.77;22.10;;;1.60;99.90;;;;;;8360010;28;20197;-64
2023/03/09 02:40:35;;;;;;;46.27;21.90;;;1.60;99.90;;;;;;8363801;28;20184;-62
2023/03/09 02:44:36;;;;;;;42.07;21.80;;;1.60;99.90;;;;;;8362527;28;20194;-63
2023/03/09 02:48:36;;;;;;;45.53;23.80;;;1.60;99.90;;;;;;8361629;28;20319;-63
2023/03/09 02:52:37;;;;;;;43.83;22.23;;;1.60;99.90;;;;;;8356630;28;20189;-63
2023/03/09 02:56:38;;;;;;;39.00;21.33;;;1.60;99.90;;;;;;8360933;28;20201;-63
2023/03/09 03:00:39;;;;;;;42.90;20.93;;;1.60;99.90;;;;;;8363664;28;20181;-63
2023/03/09 03:04:40;;;;;;;38.87;19.80;;;1.60;99.90;;;;;;8361761;28;20601;-63
2023/03/09 03:08:41;;;;;;;41.57;21.23;;;1.60;99.90;;;;;;8361439;28;20325;-62
2023/03/09 03:12:41;;;;;;;40.23;21.37;;;1.60;99.90;;;;;;8360086;28;20660;-64
2023/03/09 03:16:42;;;;;;;41.33;20.20;;;1.60;99.90;;;;;;8362187;28;20189;-63
2023/03/09 03:20:43;;;;;;;37.40;19.47;;;1.60;99.90;;;;;;8361604;28;20534;-63
2023/03/09 03:24:44;;;;;;;46.23;23.80;;;1.60;99.90;;;;;;8360155;28;20226;-63
2023/03/09 03:28:45;;;;;;;44.03;23.03;;;1.60;99.90;;;;;;8367061;28;20535;-63
2023/03/09 03:32:45;;;;;;;43.33;22.80;;;1.60;99.90;;;;;;8365522;28;20286;-62
2023/03/09 03:36:46;;;;;;;40.83;22.53;;;1.60;99.90;;;;;;8362553;28;20248;-63
2023/03/09 03:40:48;;;;;;;42.43;22.63;;;1.60;99.90;;;;;;8362436;28;20181;-63
2023/03/09 03:44:49;;;;;;;42.00;22.47;;;1.60;99.90;;;;;;8362517;28;20204;-64
2023/03/09 03:48:49;;;;;;;40.23;21.83;;;1.60;99.90;;;;;;8366194;28;20206;-62
2023/03/09 03:52:50;;;;;;;46.43;24.70;;;1.60;99.90;;;;;;8364517;28;20197;-63
2023/03/09 03:56:52;;;;;;;42.50;21.53;;;1.60;99.90;;;;;;8367418;28;20217;-63
2023/03/09 04:00:52;;;;;;;43.63;22.27;;;1.60;99.90;;;;;;8380342;28;20185;-63
2023/03/09 04:04:53;;;;;;;49.47;28.87;;;1.60;99.90;;;;;;8363191;28;20221;-63
2023/03/09 04:08:54;;;;;;;46.00;24.20;;;1.60;99.90;;;;;;8366973;28;20214;-63
2023/03/09 04:12:57;;;;;;;41.27;22.60;;;1.60;99.90;;;;;;8372663;28;20216;-63
2023/03/09 04:16:57;;;;;;;52.27;25.43;;;1.50;99.90;;;;;;8366561;28;20213;-64
2023/03/09 04:20:58;;;;;;;48.10;23.97;;;1.50;99.90;;;;;;8365979;28;20182;-63
2023/03/09 04:24:59;;;;;;;51.07;26.67;;;1.50;99.90;;;;;;8362250;28;20197;-63
2023/03/09 04:29:00;;;;;;;42.00;23.53;;;1.50;99.90;;;;;;8365183;28;20202;-63
2023/03/09 04:33:01;;;;;;;49.80;25.53;;;1.50;99.90;;;;;;8361221;28;20209;-64
2023/03/09 04:37:02;;;;;;;70.13;32.13;;;1.50;99.90;;;;;;8367359;28;20208;-64
2023/03/09 04:41:03;;;;;;;64.60;29.50;;;1.50;99.90;;;;;;8364673;28;20189;-64
2023/03/09 04:45:04;;;;;;;76.73;34.40;;;1.40;99.90;;;;;;8365833;28;20200;-64
2023/03/09 04:49:06;;;;;;;84.90;37.00;;;1.40;99.90;;;;;;8362383;28;20521;-64
2023/03/09 04:53:06;;;;;;;66.60;32.10;;;1.40;99.90;;;;;;8368323;28;20192;-64
2023/03/09 04:57:07;;;;;;;97.77;41.90;;;1.30;99.90;;;;;;8361254;28;20181;-64
2023/03/09 05:01:08;;;;;;;73.37;33.00;;;1.30;99.90;;;;;;8378363;28;20262;-65
2023/03/09 05:05:10;;;;;;;68.27;32.53;;;1.20;99.90;;;;;;8361386;28;20181;-64
2023/03/09 05:09:11;;;;;;;57.40;29.10;;;1.20;99.90;;;;;;8364390;28;20216;-67
2023/03/09 05:13:12;;;;;;;42.37;22.33;;;1.20;99.90;;;;;;8364862;28;20495;-64
2023/03/09 05:17:12;;;;;;;57.03;28.17;;;1.20;99.90;;;;;;8360387;28;20193;-64
2023/03/09 05:21:13;;;;;;;40.77;22.07;;;1.20;99.90;;;;;;8364859;28;20188;-65
2023/03/09 05:25:14;;;;;;;55.73;27.27;;;1.10;99.90;;;;;;8356723;28;20189;-66
2023/03/09 05:29:15;;;;;;;95.83;37.23;;;1.10;99.90;;;;;;8358342;28;20235;-65
2023/03/09 05:33:17;;;;;;;212.63;89.30;;;1.10;99.90;;;;;;8358909;28;20264;-66
2023/03/09 05:37:18;;;;;;;192.57;82.93;;;1.10;99.90;;;;;;8363373;28;20205;-69
2023/03/09 05:41:19;;;;;;;75.10;35.27;;;1.10;99.90;;;;;;8362207;28;20241;-71
2023/03/09 05:45:20;;;;;;;61.03;30.43;;;1.10;99.90;;;;;;8358114;28;20200;-71
2023/03/09 05:49:21;;;;;;;50.43;26.33;;;1.20;99.90;;;;;;8360844;28;20205;-71
2023/03/09 05:53:21;;;;;;;41.63;22.43;;;1.20;99.90;;;;;;8363968;28;20288;-71
2023/03/09 05:57:22;;;;;;;31.17;17.57;;;1.20;99.90;;;;;;8362462;28;20238;-72
2023/03/09 06:01:26;;;;;;;27.27;15.37;;;1.20;99.90;;;;;;8362544;28;20181;-71
2023/03/09 06:05:26;;;;;;;29.03;18.10;;;1.20;99.90;;;;;;8361160;28;20197;-72
2023/03/09 06:09:27;;;;;;;24.43;14.97;;;1.20;99.90;;;;;;8367336;28;20216;-72
2023/03/09 06:13:28;;;;;;;21.50;14.23;;;1.20;99.90;;;;;;8368366;28;20182;-72
2023/03/09 06:17:29;;;;;;;22.33;15.30;;;1.20;99.90;;;;;;8372696;28;20185;-73
2023/03/09 06:21:30;;;;;;;23.90;13.97;;;1.20;99.90;;;;;;8367831;28;20264;-73
2023/03/09 06:25:31;;;;;;;22.67;13.53;;;1.20;99.90;;;;;;8369666;28;20185;-73
2023/03/09 06:29:32;;;;;;;22.53;14.50;;;1.20;99.90;;;;;;8370408;28;20211;-71
2023/03/09 06:33:33;;;;;;;28.43;19.50;;;1.20;99.90;;;;;;8370544;28;20444;-71
2023/03/09 06:37:34;;;;;;;19.40;11.87;;;1.30;99.90;;;;;;8378125;28;20200;-71
2023/03/09 06:41:35;;;;;;;20.70;12.97;;;1.30;99.90;;;;;;8372432;28;20196;-71
2023/03/09 06:45:39;;;;;;;20.93;12.73;;;1.30;99.90;;;;;;8379650;28;20180;-70
2023/03/09 06:49:39;;;;;;;16.50;10.50;;;1.30;99.90;;;;;;8381031;28;20291;-72
2023/03/09 06:53:40;;;;;;;20.77;13.00;;;1.30;99.90;;;;;;8370660;28;20252;-72
2023/03/09 06:57:41;;;;;;;23.93;12.57;;;1.30;99.90;;;;;;8375744;28;20201;-72
2023/03/09 07:01:42;;;;;;;28.53;14.33;;;1.40;99.90;;;;;;8366854;28;20265;-72
2023/03/09 07:05:43;;;;;;;14.00;9.43;;;1.40;99.90;;;;;;8360500;28;20315;-71
2023/03/09 07:09:44;;;;;;;26.90;13.07;;;1.40;99.90;;;;;;8361829;28;20279;-71
2023/03/09 07:13:45;;;;;;;15.93;10.57;;;1.30;99.90;;;;;;8363113;28;20223;-72
2023/03/09 07:17:46;;;;;;;26.63;16.43;;;1.40;99.90;;;;;;8362575;28;20201;-72
2023/03/09 07:21:47;;;;;;;32.00;16.57;;;1.40;99.90;;;;;;8369053;28;20277;-72
2023/03/09 07:25:48;;;;;;;25.13;14.67;;;1.50;99.90;;;;;;8367981;28;20193;-72
2023/03/09 07:29:48;;;;;;;29.33;15.20;;;1.50;99.90;;;;;;8367105;28;20282;-72
2023/03/09 07:33:49;;;;;;;24.50;12.67;;;1.60;99.90;;;;;;8363443;28;20192;-71
2023/03/09 07:37:50;;;;;;;25.33;13.60;;;1.70;99.90;;;;;;8369590;28;20216;-71
2023/03/09 07:41:51;;;;;;;29.83;15.20;;;1.80;99.90;;;;;;8367915;28;20622;-71
2023/03/09 07:45:52;;;;;;;29.03;15.07;;;1.90;99.90;;;;;;8366217;28;20195;-71
2023/03/09 07:49:52;;;;;;;20.30;10.73;;;1.90;99.90;;;;;;8367050;28;20221;-71
2023/03/09 07:53:54;;;;;;;20.63;12.57;;;2.00;99.90;;;;;;8367574;28;20193;-71
2023/03/09 07:57:54;;;;;;;25.97;15.77;;;2.10;99.90;;;;;;8362656;28;20201;-70
2023/03/09 08:01:55;;;;;;;17.53;11.40;;;2.20;99.90;;;;;;8368041;28;20186;-69
2023/03/09 08:05:56;;;;;;;53.53;23.57;;;2.20;99.90;;;;;;8364453;28;20189;-71
2023/03/09 08:09:57;;;;;;;27.87;16.60;;;2.30;99.90;;;;;;8368106;28;20220;-70
2023/03/09 08:13:58;;;;;;;27.50;17.03;;;2.40;99.90;;;;;;8366882;28;20304;-70
2023/03/09 08:18:00;;;;;;;23.07;13.97;;;2.60;99.90;;;;;;8365316;28;20204;-71
2023/03/09 08:22:01;;;;;;;33.17;17.03;;;2.80;99.90;;;;;;8367731;28;20224;-70
2023/03/09 08:26:01;;;;;;;25.57;16.43;;;2.90;99.90;;;;;;8367145;28;20192;-70
2023/03/09 08:30:03;;;;;;;22.93;15.77;;;2.80;99.90;;;;;;8369092;28;20272;-70
2023/03/09 08:34:05;;;;;;;16.27;12.40;;;2.80;99.90;;;;;;8370799;28;20193;-70
2023/03/09 08:38:05;;;;;;;28.03;17.27;;;2.70;99.90;;;;;;8362828;28;20213;-70
2023/03/09 08:42:06;;;;;;;22.10;14.10;;;2.70;99.90;;;;;;8372882;28;20201;-72
2023/03/09 08:46:07;;;;;;;20.87;12.97;;;2.70;99.90;;;;;;8362811;28;20223;-71
2023/03/09 08:50:09;;;;;;;42.17;22.33;;;2.70;99.90;;;;;;8366094;28;20605;-70
2023/03/09 08:54:10;;;;;;;28.97;16.00;;;2.80;99.90;;;;;;8363563;28;20185;-70
2023/03/09 08:58:11;;;;;;;41.07;19.83;;;2.80;99.90;;;;;;8364850;28;20220;-70
2023/03/09 09:02:14;;;;;;;51.47;23.50;;;2.90;99.90;;;;;;8363059;28;20196;-71
2023/03/09 09:06:15;;;;;;;20.60;12.03;;;2.70;99.90;;;;;;8370223;28;20217;-70
2023/03/09 09:10:16;;;;;;;12.80;10.23;;;2.40;99.90;;;;;;8362622;28;20217;-71
2023/03/09 09:14:17;;;;;;;16.37;11.83;;;2.10;99.90;;;;;;8361517;28;20181;-70
2023/03/09 09:18:18;;;;;;;14.83;10.77;;;2.10;99.90;;;;;;8363083;28;20200;-70
2023/03/09 09:22:19;;;;;;;14.20;11.03;;;2.00;99.90;;;;;;8359403;28;20177;-70
2023/03/09 09:26:20;;;;;;;14.37;10.17;;;2.20;99.90;;;;;;8360402;28;20248;-71
2023/03/09 09:30:22;;;;;;;15.73;10.20;;;2.50;99.90;;;;;;8366319;28;20627;-70
2023/03/09 09:34:23;;;;;;;20.90;14.53;;;2.60;99.90;;;;;;8362618;28;20196;-70
2023/03/09 09:38:25;;;;;;;24.67;16.23;;;2.80;99.90;;;;;;8379495;28;20193;-70
2023/03/09 09:42:31;;;;;;;24.23;15.93;;;2.90;99.90;;;;;;8377408;28;20223;-70
2023/03/09 09:46:35;;;;;;;22.07;16.83;;;3.20;99.90;;;;;;8363798;28;20186;-70
2023/03/09 09:50:48;;;;;;;11.03;8.77;;;3.30;99.90;;;;;;8364067;28;20574;-71
2023/03/09 09:55:25;;;;;;;9.73;7.73;;;3.40;99.90;;;;;;8359911;28;20185;-71
2023/03/09 09:59:56;;;;;;;13.53;9.17;;;3.70;99.90;;;;;;8364468;28;20181;-70
2023/03/09 10:04:02;;;;;;;12.33;9.23;;;3.70;74.80;;;;;;8374946;28;20185;-70
2023/03/09 10:08:31;;;;;;;22.63;14.60;;;3.60;12.70;;;;;;8363173;28;20204;-70
2023/03/09 10:12:32;;;;;;;18.67;13.33;;;3.50;58.30;;;;;;8365212;28;20531;-70
2023/03/09 10:16:45;;;;;;;14.47;11.20;;;3.70;31.30;;;;;;8365202;28;20268;-70
2023/03/09 10:20:53;;;;;;;16.97;11.23;;;3.80;12.20;;;;;;8376645;28;20538;-71
2023/03/09 10:24:55;;;;;;;12.73;9.67;;;3.90;1.00;;;;;;8367731;28;20186;-70
2023/03/09 10:29:04;;;;;;;17.90;12.33;;;3.40;1.00;;;;;;8363164;28;20212;-70
2023/03/09 10:33:26;;;;;;;10.47;8.27;;;3.30;64.60;;;;;;8361191;28;20181;-70
2023/03/09 10:37:34;;;;;;;9.80;7.27;;;2.80;99.90;;;;;;8361402;28;20227;-70
2023/03/09 10:41:35;;;;;;;13.33;9.13;;;2.50;99.90;;;;;;8378261;28;20179;-72
2023/03/09 10:45:36;;;;;;;11.40;9.13;;;2.30;99.90;;;;;;8359989;28;20198;-70
2023/03/09 10:49:37;;;;;;;13.73;10.03;;;2.20;99.90;;;;;;8362587;28;20209;-70
2023/03/09 10:53:41;;;;;;;10.60;8.67;;;2.20;99.90;;;;;;8357691;28;20273;-69
2023/03/09 10:58:01;;;;;;;10.00;7.57;;;2.10;99.90;;;;;;8368638;28;20238;-69
2023/03/09 11:02:29;;;;;;;10.40;7.53;;;2.20;99.90;;;;;;8373451;28;20189;-69
2023/03/09 11:06:38;;;;;;;10.40;8.33;;;2.30;99.90;;;;;;8370623;28;20177;-69
2023/03/09 11:10:38;;;;;;;10.87;7.73;;;2.40;99.90;;;;;;8379906;28;20210;-70
2023/03/09 11:14:58;;;;;;;8.50;6.63;;;2.50;99.90;;;;;;8365329;28;20180;-69
2023/03/09 11:19:14;;;;;;;9.97;6.67;;;2.60;99.90;;;;;;8376985;28;20201;-70
2023/03/09 11:23:24;;;;;;;10.43;6.93;;;2.70;99.90;;;;;;8371915;28;20189;-70
2023/03/09 11:27:34;;;;;;;11.87;8.73;;;2.50;99.90;;;;;;8365425;28;20220;-70
2023/03/09 11:31:38;;;;;;;9.27;6.87;;;2.30;99.90;;;;;;8364768;28;20178;-70
2023/03/09 11:35:39;;;;;;;8.40;6.67;;;2.20;99.90;;;;;;8381285;28;20255;-70
2023/03/09 11:40:03;;;;;;;10.73;8.60;;;2.10;99.90;;;;;;8381436;28;20185;-70
2023/03/09 11:44:15;;;;;;;10.57;7.90;;;2.20;99.90;;;;;;8375806;28;20233;-70
2023/03/09 11:48:31;;;;;;;11.20;8.23;;;2.60;99.90;;;;;;8362155;28;20211;-70
2023/03/09 11:52:37;;;;;;;12.23;8.00;;;2.80;99.90;;;;;;8367127;28;20193;-69
2023/03/09 11:56:42;;;;;;;9.77;7.07;;;3.10;99.90;;;;;;8365243;28;20181;-70
2023/03/09 12:00:49;;;;;;;7.90;6.47;;;3.30;99.90;;;;;;8362642;28;20197;-70
2023/03/09 12:04:51;;;;;;;6.47;5.57;;;3.30;99.90;;;;;;8369446;28;21189;-70
2023/03/09 12:08:56;;;;;;;8.73;6.60;;;3.30;99.90;;;;;;8368332;28;20266;-69
2023/03/09 12:13:03;;;;;;;8.07;6.57;;;3.20;99.90;;;;;;8365011;28;20200;-68
2023/03/09 12:17:14;;;;;;;10.87;7.43;;;2.90;99.90;;;;;;8362118;28;20181;-69
2023/03/09 12:21:15;;;;;;;7.40;6.23;;;2.60;99.90;;;;;;8372993;28;20202;-69
2023/03/09 12:25:22;;;;;;;11.90;7.93;;;2.50;99.90;;;;;;8371116;28;20281;-68
2023/03/09 12:29:26;;;;;;;9.47;7.60;;;2.50;99.90;;;;;;8366797;28;20202;-68
2023/03/09 12:33:43;;;;;;;9.97;6.87;;;2.30;99.90;;;;;;8364081;28;20182;-68
2023/03/09 12:37:47;;;;;;;10.27;6.90;;;2.30;99.90;;;;;;8369109;28;20240;-69
2023/03/09 12:42:02;;;;;;;9.03;6.90;;;2.30;99.90;;;;;;8362618;28;20193;-69
2023/03/09 12:46:48;;;;;;;10.63;6.90;;;2.40;99.90;;;;;;8362879;28;20186;-69
2023/03/09 12:50:58;;;;;;;11.27;7.33;;;2.50;99.90;;;;;;8359295;28;20225;-68
2023/03/09 12:55:21;;;;;;;11.70;7.57;;;2.70;99.90;;;;;;8365996;28;20185;-69
2023/03/09 12:59:27;;;;;;;9.73;7.47;;;2.90;99.90;;;;;;8364199;28;20185;-68
2023/03/09 13:03:31;;;;;;;11.77;8.23;;;2.80;99.90;;;;;;8362955;28;20383;-68
2023/03/09 13:07:31;;;;;;;12.83;8.97;;;2.90;99.90;;;;;;8363496;28;20209;-69
2023/03/09 13:11:40;;;;;;;9.83;7.47;;;3.00;99.90;;;;;;8365663;28;20181;-70
2023/03/09 13:15:41;;;;;;;11.23;7.80;;;3.00;99.90;;;;;;8366830;28;20196;-70
2023/03/09 13:19:50;;;;;;;8.90;7.47;;;2.90;99.90;;;;;;8365630;28;20222;-70
2023/03/09 13:23:52;;;;;;;9.17;7.30;;;2.70;99.90;;;;;;8362780;28;20190;-69
2023/03/09 13:28:01;;;;;;;12.40;8.37;;;2.70;99.90;;;;;;8360150;28;20226;-69
2023/03/09 13:32:05;;;;;;;14.23;9.77;;;2.80;99.90;;;;;;8362930;28;20212;-70
2023/03/09 13:36:16;;;;;;;11.90;9.27;;;2.80;99.90;;;;;;8363997;28;20229;-69
2023/03/09 13:40:23;;;;;;;13.00;8.67;;;2.80;99.90;;;;;;8362764;28;20194;-70
2023/03/09 13:44:26;;;;;;;14.30;10.03;;;2.80;99.90;;;;;;8366268;28;20308;-71
2023/03/09 13:48:27;;;;;;;11.70;8.87;;;2.90;99.90;;;;;;8361421;28;20209;-71
2023/03/09 13:52:28;;;;;;;16.13;10.27;;;2.90;99.90;;;;;;8364538;28;20177;-69
2023/03/09 13:56:31;;;;;;;13.10;9.53;;;3.00;99.90;;;;;;8355337;28;20289;-70
2023/03/09 14:00:32;;;;;;;18.20;11.60;;;3.00;99.90;;;;;;8362934;28;20193;-70
2023/03/09 14:04:42;;;;;;;16.47;10.90;;;3.00;99.90;;;;;;8358962;28;20265;-69
2023/03/09 14:08:49;;;;;;;17.27;10.73;;;3.00;99.90;;;;;;8363376;28;20685;-69
2023/03/09 14:13:19;;;;;;;14.57;10.63;;;3.20;99.90;;;;;;8376561;28;20210;-70
2023/03/09 14:17:20;;;;;;;13.23;9.40;;;3.10;99.90;;;;;;8361494;28;20519;-69
2023/03/09 14:21:26;;;;;;;14.33;10.13;;;3.10;99.90;;;;;;8360799;28;20213;-69
2023/03/09 14:25:31;;;;;;;19.17;14.13;;;3.00;99.90;;;;;;8362871;28;20292;-68
2023/03/09 14:29:32;;;;;;;28.80;18.17;;;3.10;99.90;;;;;;8358181;28;20224;-69
2023/03/09 14:33:33;;;;;;;26.00;16.67;;;3.30;99.90;;;;;;8363400;28;20302;-69
2023/03/09 14:37:34;;;;;;;17.37;13.10;;;3.50;99.90;;;;;;8360255;28;20331;-70
2023/03/09 14:41:36;;;;;;;10.23;7.27;;;3.70;99.90;;;;;;8363154;28;20209;-68
2023/03/09 14:45:37;;;;;;;10.37;7.03;;;3.60;99.90;;;;;;8362716;28;20188;-70
2023/03/09 14:49:38;;;;;;;14.50;11.13;;;3.60;99.90;;;;;;8360459;28;20260;-68
2023/03/09 14:53:59;;;;;;;17.60;12.23;;;3.80;99.90;;;;;;8361482;28;20243;-68
2023/03/09 14:58:00;;;;;;;23.80;15.03;;;4.00;99.90;;;;;;8360952;28;20193;-70
2023/03/09 15:02:02;;;;;;;15.37;9.00;;;3.80;99.90;;;;;;8358880;28;20188;-68
2023/03/09 15:06:03;;;;;;;13.67;10.70;;;3.50;99.90;;;;;;8357704;28;20197;-69
2023/03/09 15:10:04;;;;;;;16.20;11.03;;;3.30;99.90;;;;;;8361350;28;20254;-67
2023/03/09 15:14:20;;;;;;;19.60;12.30;;;3.30;99.90;;;;;;8358777;28;20192;-68
2023/03/09 15:18:21;;;;;;;21.47;13.57;;;3.40;99.90;;;;;;8361647;28;20184;-70
2023/03/09 15:22:21;;;;;;;20.87;15.50;;;3.50;99.90;;;;;;8362459;28;20211;-68
2023/03/09 15:26:22;;;;;;;19.63;14.50;;;3.50;99.90;;;;;;8360340;28;20185;-70
2023/03/09 15:30:23;;;;;;;25.33;17.30;;;3.50;99.90;;;;;;8358040;28;20231;-68
2023/03/09 15:34:24;;;;;;;56.50;31.27;;;3.40;99.90;;;;;;8361046;28;20189;-68
2023/03/09 15:38:25;;;;;;;43.70;24.87;;;3.40;99.90;;;;;;8361868;28;20239;-68
2023/03/09 15:42:26;;;;;;;23.07;15.47;;;3.50;99.90;;;;;;8367948;28;20197;-68
2023/03/09 15:46:27;;;;;;;37.47;23.20;;;3.50;99.90;;;;;;8365512;28;20201;-68
2023/03/09 15:50:28;;;;;;;39.00;23.67;;;3.40;99.90;;;;;;8368494;28;20209;-68
2023/03/09 15:54:29;;;;;;;30.83;20.27;;;3.40;99.90;;;;;;8366692;28;20207;-68
2023/03/09 15:58:31;;;;;;;46.57;25.30;;;3.50;99.90;;;;;;8365361;28;20189;-68
2023/03/09 16:02:32;;;;;;;38.87;24.80;;;3.40;99.90;;;;;;8364896;28;20193;-68
2023/03/09 16:06:32;;;;;;;45.90;27.10;;;3.40;99.90;;;;;;8366291;28;20189;-68
2023/03/09 16:10:33;;;;;;;38.80;25.10;;;3.30;99.90;;;;;;8367320;28;20216;-68
2023/03/09 16:14:34;;;;;;;80.07;51.23;;;3.30;99.90;;;;;;8368547;28;20188;-68
2023/03/09 16:18:35;;;;;;;62.33;37.70;;;3.20;99.90;;;;;;8367168;28;20248;-68
2023/03/09 16:22:36;;;;;;;47.37;29.50;;;3.20;99.90;;;;;;8367287;28;20181;-68
2023/03/09 16:26:37;;;;;;;61.20;36.13;;;3.10;99.90;;;;;;8362534;28;20201;-73
2023/03/09 16:30:37;;;;;;;63.53;37.83;;;3.00;99.90;;;;;;8368290;28;20205;-68
2023/03/09 16:34:38;;;;;;;65.13;35.03;;;3.00;99.90;;;;;;8366883;28;20188;-68
2023/03/09 16:38:39;;;;;;;58.80;31.07;;;3.00;99.90;;;;;;8361396;28;20189;-68
2023/03/09 16:42:40;;;;;;;57.33;32.50;;;2.90;99.90;;;;;;8367839;28;20204;-69
2023/03/09 16:46:41;;;;;;;134.30;57.33;;;3.00;99.90;;;;;;8365716;28;20585;-68
2023/03/09 16:50:42;;;;;;;72.87;35.30;;;3.00;99.90;;;;;;8366501;28;20255;-69
2023/03/09 16:54:43;;;;;;;45.80;28.10;;;2.90;99.90;;;;;;8363920;28;20197;-70
2023/03/09 16:58:44;;;;;;;92.33;39.90;;;2.90;99.90;;;;;;8364519;28;20255;-70
2023/03/09 17:02:45;;;;;;;126.37;50.57;;;2.90;99.90;;;;;;8369071;28;20197;-70
2023/03/09 17:06:46;;;;;;;116.63;52.07;;;2.90;99.90;;;;;;8363067;28;20201;-70
2023/03/09 17:10:47;;;;;;;137.90;53.93;;;2.90;99.90;;;;;;8366632;28;20235;-70
2023/03/09 17:14:50;;;;;;;94.70;41.93;;;2.90;99.90;;;;;;8366608;28;20278;-70
2023/03/09 17:18:56;;;;;;;63.27;33.43;;;2.90;99.90;;;;;;8370685;28;20207;-65
2023/03/09 17:22:57;;;;;;;32.40;19.67;;;2.80;99.90;;;;;;8366582;28;20185;-65
2023/03/09 17:26:58;;;;;;;87.67;36.60;;;2.80;99.90;;;;;;8376432;28;20196;-65
2023/03/09 17:30:59;;;;;;;33.43;19.43;;;2.80;99.90;;;;;;8368031;28;20295;-64
2023/03/09 17:35:00;;;;;;;44.87;21.93;;;2.70;99.90;;;;;;8374375;28;20211;-65
2023/03/09 17:39:01;;;;;;;37.73;21.67;;;2.70;99.90;;;;;;8365152;28;20455;-65
2023/03/09 17:43:02;;;;;;;28.20;16.57;;;2.70;99.90;;;;;;8375073;28;20202;-67
2023/03/09 17:47:03;;;;;;;20.17;13.30;;;2.70;99.90;;;;;;8362368;28;20185;-65
2023/03/09 17:51:06;;;;;;;62.77;27.97;;;2.70;99.90;;;;;;8367579;28;20312;-64
2023/03/09 17:55:09;;;;;;;68.63;33.30;;;2.70;99.90;;;;;;8359838;28;20228;-65
2023/03/09 17:59:10;;;;;;;84.10;42.27;;;2.70;99.90;;;;;;8363887;28;20188;-64
2023/03/09 18:03:11;;;;;;;56.40;33.03;;;2.70;99.90;;;;;;8362941;28;20268;-64
2023/03/09 18:07:13;;;;;;;53.60;29.43;;;2.70;99.90;;;;;;8377135;28;20189;-64
2023/03/09 18:11:18;;;;;;;43.03;24.27;;;2.70;99.90;;;;;;8362396;28;20216;-64
2023/03/09 18:15:20;;;;;;;34.37;20.57;;;2.70;99.90;;;;;;8357784;28;20430;-64
2023/03/09 18:19:20;;;;;;;35.43;22.40;;;2.70;99.90;;;;;;8357859;28;20192;-64
2023/03/09 18:23:21;;;;;;;39.23;26.83;;;2.70;99.90;;;;;;8361282;28;20177;-64
2023/03/09 18:27:22;;;;;;;35.57;21.17;;;2.70;99.90;;;;;;8363597;28;20213;-64
2023/03/09 18:31:24;;;;;;;30.00;19.27;;;2.70;99.90;;;;;;8360959;28;20229;-64
2023/03/09 18:35:26;;;;;;;28.73;18.43;;;2.70;99.90;;;;;;8362283;28;20243;-64
2023/03/09 18:39:27;;;;;;;25.97;16.57;;;2.70;99.90;;;;;;8362802;28;20236;-64
2023/03/09 18:43:28;;;;;;;26.47;16.33;;;2.70;99.90;;;;;;8360906;28;20214;-64
2023/03/09 18:47:29;;;;;;;30.97;17.40;;;2.70;99.90;;;;;;8359803;28;20835;-64
2023/03/09 18:51:30;;;;;;;29.87;18.27;;;2.70;99.90;;;;;;8380312;28;20184;-64
2023/03/09 18:55:31;;;;;;;28.73;17.70;;;2.70;99.90;;;;;;8363941;28;20192;-65
2023/03/09 18:59:32;;;;;;;27.77;16.90;;;2.70;99.90;;;;;;8364118;28;20274;-63
2023/03/09 19:03:33;;;;;;;28.13;16.70;;;2.70;99.90;;;;;;8361952;28;20336;-66
2023/03/09 19:07:33;;;;;;;26.67;16.63;;;2.70;99.90;;;;;;8360897;28;20219;-63
2023/03/09 19:11:37;;;;;;;33.73;19.90;;;2.70;99.90;;;;;;8364355;28;20210;-63
2023/03/09 19:15:39;;;;;;;32.70;20.00;;;2.70;99.90;;;;;;8359874;28;20209;-64
2023/03/09 19:19:41;;;;;;;46.67;24.27;;;2.70;99.90;;;;;;8362697;28;20186;-64
2023/03/09 19:23:42;;;;;;;61.83;31.57;;;2.70;99.90;;;;;;8369429;28;20182;-63
2023/03/09 19:27:43;;;;;;;53.63;28.97;;;2.80;99.90;;;;;;8368614;28;20262;-63
2023/03/09 19:31:44;;;;;;;54.83;29.63;;;2.80;99.90;;;;;;8368524;28;20177;-64
2023/03/09 19:35:57;;;;;;;48.20;27.10;;;2.80;99.90;;;;;;8365582;28;20289;-63
2023/03/09 19:39:59;;;;;;;54.10;27.80;;;2.80;99.90;;;;;;8368661;28;20190;-64
2023/03/09 19:44:00;;;;;;;60.80;31.67;;;2.80;99.90;;;;;;8361803;28;20198;-63
2023/03/09 19:48:01;;;;;;;71.07;35.13;;;2.80;99.90;;;;;;8379610;28;20474;-64
2023/03/09 19:52:02;;;;;;;65.00;32.27;;;2.80;99.90;;;;;;8367562;28;20219;-64
2023/03/09 19:56:12;;;;;;;67.80;32.83;;;2.80;99.90;;;;;;8362869;28;20716;-64
2023/03/09 20:00:14;;;;;;;74.70;33.53;;;2.80;99.90;;;;;;8365288;28;20188;-64
2023/03/09 20:04:17;;;;;;;66.00;33.67;;;2.80;99.90;;;;;;8365516;28;20272;-64
2023/03/09 20:08:18;;;;;;;68.80;32.90;;;2.80;99.90;;;;;;8363072;28;20209;-65
2023/03/09 20:12:22;;;;;;;70.77;35.10;;;2.80;99.90;;;;;;8367864;28;20184;-64
2023/03/09 20:16:27;;;;;;;74.73;36.17;;;2.80;99.90;;;;;;8364052;28;20760;-64
2023/03/09 20:20:28;;;;;;;74.53;35.20;;;2.80;99.90;;;;;;8364899;28;20192;-64
2023/03/09 20:24:28;;;;;;;72.83;34.40;;;2.80;99.90;;;;;;8366256;28;20213;-63
2023/03/09 20:28:32;;;;;;;76.40;39.07;;;2.80;99.90;;;;;;8365185;28;20254;-64
2023/03/09 20:32:33;;;;;;;89.70;43.67;;;2.80;99.90;;;;;;8364164;28;20181;-64
2023/03/09 20:36:34;;;;;;;81.07;40.33;;;2.80;99.90;;;;;;8364889;28;20201;-64
2023/03/09 20:40:35;;;;;;;77.77;38.90;;;2.90;99.90;;;;;;8365638;28;20182;-63
2023/03/09 20:44:36;;;;;;;103.90;48.37;;;2.90;99.90;;;;;;8364883;28;20199;-65
2023/03/09 20:48:37;;;;;;;102.80;48.30;;;2.90;99.90;;;;;;8362837;28;20209;-64
2023/03/09 20:52:39;;;;;;;105.70;47.07;;;3.00;99.90;;;;;;8364928;28;20179;-64